sensor_id;sensor_type;location;lat;lon;timestamp;pressure;altitude;pressure_sealevel;temperature;humidity
13367;BME280;6752;52.612;13.630;2023-08-17T00:03:06;101395.58;;;18.89;100.00
13367;BME280;6752;52.612;13.630;2023-08-17T00:08:09;101389.09;;;19.00;100.00
13367;BME280;6752;52.612;13.630;2023-08-17T00:13:11;101390.16;;;18.86;100.00
13367;BME280;6752;52.612;13.630;2023-08-17T00:18:14;101388.05;;;18.93;100.00
13367;BME280;6752;52.612;13.630;2023-08-17T00:23:16;101385.17;;;18.85;100.00
13367;BME280;6752;52.612;13.630;2023-08-17T00:28:18;101375.66;;;18.63;100.00
13367;BME280;6752;52.612;13.630;2023-08-17T00:33:21;101358.50;;;18.50;100.00
13367;BME280;6752;52.612;13.630;2023-08-17T00:38:23;101340.44;;;18.73;100.00
13367;BME280;6752;52.612;13.630;2023-08-17T00:43:25;101337.51;;;18.49;100.00
13367;BME280;6752;52.612;13.630;2023-08-17T00:48:28;101334.89;;;18.40;100.00
13367;BME280;6752;52.612;13.630;2023-08-17T00:53:30;101355.25;;;18.34;100.00
13367;BME280;6752;52.612;13.630;2023-08-17T00:58:32;101360.95;;;18.38;100.00
13367;BME280;6752;52.612;13.630;2023-08-17T01:03:35;101370.84;;;18.34;100.00
13367;BME280;6752;52.612;13.630;2023-08-17T01:08:37;101368.66;;;18.36;100.00
13367;BME280;6752;52.612;13.630;2023-08-17T01:19:07;101367.55;;;18.23;100.00
13367;BME280;6752;52.612;13.630;2023-08-17T01:24:08;101364.88;;;18.12;100.00
13367;BME280;6752;52.612;13.630;2023-08-17T01:29:11;101360.26;;;18.17;100.00
13367;BME280;6752;52.612;13.630;2023-08-17T01:34:14;101348.97;;;18.08;100.00
13367;BME280;6752;52.612;13.630;2023-08-17T01:39:15;101356.73;;;18.00;100.00
13367;BME280;6752;52.612;13.630;2023-08-17T01:44:18;101355.09;;;17.93;100.00
13367;BME280;6752;52.612;13.630;2023-08-17T01:49:20;101357.20;;;17.86;100.00
13367;BME280;6752;52.612;13.630;2023-08-17T01:54:23;101352.77;;;17.85;100.00
13367;BME280;6752;52.612;13.630;2023-08-17T01:59:25;101351.06;;;17.82;100.00
13367;BME280;6752;52.612;13.630;2023-08-17T02:04:27;101359.63;;;17.83;100.00
13367;BME280;6752;52.612;13.630;2023-08-17T02:09:30;101358.07;;;17.72;100.00
13367;BME280;6752;52.612;13.630;2023-08-17T02:14:32;101356.44;;;17.74;100.00
13367;BME280;6752;52.612;13.630;2023-08-17T02:19:34;101368.36;;;17.69;100.00
13367;BME280;6752;52.612;13.630;2023-08-17T02:24:37;101372.82;;;17.72;100.00
13367;BME280;6752;52.612;13.630;2023-08-17T02:29:39;101352.30;;;17.57;100.00
13367;BME280;6752;52.612;13.630;2023-08-17T02:34:41;101351.55;;;17.61;100.00
13367;BME280;6752;52.612;13.630;2023-08-17T02:39:44;101356.36;;;17.52;100.00
13367;BME280;6752;52.612;13.630;2023-08-17T02:44:46;101361.41;;;17.58;100.00
13367;BME280;6752;52.612;13.630;2023-08-17T02:49:49;101359.17;;;17.49;100.00
13367;BME280;6752;52.612;13.630;2023-08-17T02:54:51;101354.00;;;17.36;100.00
13367;BME280;6752;52.612;13.630;2023-08-17T02:59:54;101342.94;;;17.41;100.00
13367;BME280;6752;52.612;13.630;2023-08-17T03:04:56;101330.22;;;17.29;100.00
13367;BME280;6752;52.612;13.630;2023-08-17T03:09:58;101324.39;;;17.20;100.00
13367;BME280;6752;52.612;13.630;2023-08-17T03:15:01;101329.81;;;17.15;100.00
13367;BME280;6752;52.612;13.630;2023-08-17T03:20:03;101325.22;;;17.12;100.00
13367;BME280;6752;52.612;13.630;2023-08-17T03:25:06;101325.39;;;17.14;100.00
13367;BME280;6752;52.612;13.630;2023-08-17T03:30:08;101323.30;;;17.13;100.00
13367;BME280;6752;52.612;13.630;2023-08-17T03:35:10;101328.85;;;17.07;100.00
13367;BME280;6752;52.612;13.630;2023-08-17T03:40:13;101339.50;;;17.03;100.00
13367;BME280;6752;52.612;13.630;2023-08-17T03:45:15;101336.78;;;16.97;100.00
13367;BME280;6752;52.612;13.630;2023-08-17T03:50:17;101322.77;;;16.99;100.00
13367;BME280;6752;52.612;13.630;2023-08-17T03:55:20;101325.52;;;16.99;100.00
13367;BME280;6752;52.612;13.630;2023-08-17T04:00:22;101330.23;;;17.15;100.00
13367;BME280;6752;52.612;13.630;2023-08-17T04:05:25;101328.64;;;17.11;100.00
13367;BME280;6752;52.612;13.630;2023-08-17T04:10:27;101317.16;;;17.16;100.00
13367;BME280;6752;52.612;13.630;2023-08-17T04:15:29;101311.73;;;17.22;100.00
13367;BME280;6752;52.612;13.630;2023-08-17T04:20:32;101295.94;;;17.31;100.00
13367;BME280;6752;52.612;13.630;2023-08-17T04:25:34;101302.31;;;17.43;100.00
13367;BME280;6752;52.612;13.630;2023-08-17T04:30:37;101301.13;;;17.47;100.00
13367;BME280;6752;52.612;13.630;2023-08-17T04:35:39;101292.11;;;17.60;100.00
13367;BME280;6752;52.612;13.630;2023-08-17T04:40:41;101283.66;;;17.67;100.00
13367;BME280;6752;52.612;13.630;2023-08-17T04:45:43;101291.17;;;17.88;100.00
13367;BME280;6752;52.612;13.630;2023-08-17T04:50:46;101293.31;;;18.03;100.00
13367;BME280;6752;52.612;13.630;2023-08-17T04:55:48;101308.05;;;18.33;100.00
13367;BME280;6752;52.612;13.630;2023-08-17T05:00:51;101307.89;;;18.44;100.00
13367;BME280;6752;52.612;13.630;2023-08-17T05:05:53;101307.66;;;18.59;100.00
13367;BME280;6752;52.612;13.630;2023-08-17T05:10:55;101318.45;;;18.83;100.00
13367;BME280;6752;52.612;13.630;2023-08-17T05:15:58;101315.13;;;19.10;100.00
13367;BME280;6752;52.612;13.630;2023-08-17T05:21:00;101317.12;;;19.33;100.00
13367;BME280;6752;52.612;13.630;2023-08-17T05:26:02;101324.81;;;19.58;100.00
13367;BME280;6752;52.612;13.630;2023-08-17T05:31:05;101328.23;;;19.68;100.00
13367;BME280;6752;52.612;13.630;2023-08-17T05:36:07;101311.86;;;20.08;100.00
13367;BME280;6752;52.612;13.630;2023-08-17T05:41:09;101319.39;;;20.42;100.00
13367;BME280;6752;52.612;13.630;2023-08-17T05:46:12;101319.05;;;20.62;100.00
13367;BME280;6752;52.612;13.630;2023-08-17T05:51:14;101314.27;;;21.04;100.00
13367;BME280;6752;52.612;13.630;2023-08-17T05:56:16;101324.75;;;21.36;100.00
13367;BME280;6752;52.612;13.630;2023-08-17T06:01:19;101308.37;;;21.57;98.46
13367;BME280;6752;52.612;13.630;2023-08-17T06:06:21;101319.98;;;21.18;96.13
13367;BME280;6752;52.612;13.630;2023-08-17T06:11:24;101313.34;;;21.65;96.30
13367;BME280;6752;52.612;13.630;2023-08-17T06:16:26;101330.55;;;21.67;94.37
13367;BME280;6752;52.612;13.630;2023-08-17T06:21:28;101344.14;;;21.69;95.02
13367;BME280;6752;52.612;13.630;2023-08-17T06:26:31;101361.91;;;21.78;94.19
13367;BME280;6752;52.612;13.630;2023-08-17T06:31:33;101390.48;;;21.58;92.29
13367;BME280;6752;52.612;13.630;2023-08-17T06:36:37;101404.61;;;21.89;94.73
13367;BME280;6752;52.612;13.630;2023-08-17T06:41:38;101418.09;;;21.56;100.00
13367;BME280;6752;52.612;13.630;2023-08-17T06:46:40;101397.41;;;21.86;96.72
13367;BME280;6752;52.612;13.630;2023-08-17T06:51:42;101372.57;;;21.85;97.25
13367;BME280;6752;52.612;13.630;2023-08-17T06:56:45;101380.06;;;21.67;95.45
13367;BME280;6752;52.612;13.630;2023-08-17T07:01:47;101364.09;;;22.01;96.65
13367;BME280;6752;52.612;13.630;2023-08-17T07:06:49;101366.98;;;22.90;91.26
13367;BME280;6752;52.612;13.630;2023-08-17T07:11:52;101374.30;;;22.66;93.71
13367;BME280;6752;52.612;13.630;2023-08-17T07:16:54;101390.00;;;22.67;93.62
13367;BME280;6752;52.612;13.630;2023-08-17T07:21:57;101393.45;;;22.38;91.11
13367;BME280;6752;52.612;13.630;2023-08-17T07:26:59;101393.44;;;22.78;91.87
13367;BME280;6752;52.612;13.630;2023-08-17T07:32:01;101386.74;;;22.86;93.30
13367;BME280;6752;52.612;13.630;2023-08-17T07:37:04;101394.83;;;22.83;93.62
13367;BME280;6752;52.612;13.630;2023-08-17T07:42:06;101387.57;;;22.47;94.85
13367;BME280;6752;52.612;13.630;2023-08-17T07:47:08;101372.94;;;22.93;93.93
13367;BME280;6752;52.612;13.630;2023-08-17T07:52:11;101386.66;;;22.67;92.83
13367;BME280;6752;52.612;13.630;2023-08-17T07:57:13;101382.48;;;23.04;92.72
13367;BME280;6752;52.612;13.630;2023-08-17T08:02:15;101378.83;;;23.70;90.74
13367;BME280;6752;52.612;13.630;2023-08-17T08:07:18;101378.63;;;23.22;90.31
13367;BME280;6752;52.612;13.630;2023-08-17T08:12:20;101378.39;;;23.72;89.05
13367;BME280;6752;52.612;13.630;2023-08-17T08:17:22;101378.22;;;23.36;89.74
13367;BME280;6752;52.612;13.630;2023-08-17T08:22:25;101374.42;;;23.25;92.27
13367;BME280;6752;52.612;13.630;2023-08-17T08:27:27;101378.30;;;23.07;93.57
13367;BME280;6752;52.612;13.630;2023-08-17T08:32:30;101364.23;;;23.69;91.68
13367;BME280;6752;52.612;13.630;2023-08-17T08:37:32;101352.83;;;23.48;93.31
13367;BME280;6752;52.612;13.630;2023-08-17T08:42:34;101352.57;;;23.67;91.42
13367;BME280;6752;52.612;13.630;2023-08-17T08:47:37;101344.70;;;24.60;88.68
13367;BME280;6752;52.612;13.630;2023-08-17T08:52:44;101323.45;;;25.16;86.35
13367;BME280;6752;52.612;13.630;2023-08-17T08:57:41;101326.10;;;24.95;84.42
13367;BME280;6752;52.612;13.630;2023-08-17T09:02:44;101325.55;;;25.34;83.43
13367;BME280;6752;52.612;13.630;2023-08-17T09:07:47;101325.53;;;24.68;84.99
13367;BME280;6752;52.612;13.630;2023-08-17T09:12:48;101318.08;;;24.42;84.96
13367;BME280;6752;52.612;13.630;2023-08-17T09:17:51;101316.71;;;24.79;87.23
13367;BME280;6752;52.612;13.630;2023-08-17T09:22:53;101312.77;;;24.64;86.93
13367;BME280;6752;52.612;13.630;2023-08-17T09:27:56;101307.97;;;24.77;87.82
13367;BME280;6752;52.612;13.630;2023-08-17T09:33:01;101296.30;;;24.93;86.66
13367;BME280;6752;52.612;13.630;2023-08-17T09:38:00;101298.16;;;24.51;88.55
13367;BME280;6752;52.612;13.630;2023-08-17T09:43:03;101289.48;;;24.07;93.31
13367;BME280;6752;52.612;13.630;2023-08-17T09:48:08;101293.09;;;23.84;94.21
13367;BME280;6752;52.612;13.630;2023-08-17T09:53:13;101289.89;;;23.57;97.34
13367;BME280;6752;52.612;13.630;2023-08-17T09:58:15;101284.73;;;23.55;98.41
13367;BME280;6752;52.612;13.630;2023-08-17T10:03:18;101300.77;;;23.17;100.00
13367;BME280;6752;52.612;13.630;2023-08-17T10:08:20;101289.70;;;22.90;100.00
13367;BME280;6752;52.612;13.630;2023-08-17T10:13:26;101288.26;;;23.34;100.00
13367;BME280;6752;52.612;13.630;2023-08-17T10:18:50;101289.76;;;23.04;100.00
13367;BME280;6752;52.612;13.630;2023-08-17T10:23:48;101275.38;;;23.60;100.00
13367;BME280;6752;52.612;13.630;2023-08-17T10:28:51;101282.33;;;23.46;100.00
13367;BME280;6752;52.612;13.630;2023-08-17T10:33:53;101282.38;;;23.72;100.00
13367;BME280;6752;52.612;13.630;2023-08-17T10:39:21;101275.42;;;24.32;100.00
13367;BME280;6752;52.612;13.630;2023-08-17T10:44:42;101277.45;;;23.76;100.00
13367;BME280;6752;52.612;13.630;2023-08-17T10:49:43;101264.69;;;23.58;100.00
13367;BME280;6752;52.612;13.630;2023-08-17T10:54:45;101261.75;;;23.42;100.00
13367;BME280;6752;52.612;13.630;2023-08-17T11:00:04;101266.32;;;23.76;100.00
13367;BME280;6752;52.612;13.630;2023-08-17T11:04:53;101251.64;;;24.61;100.00
13367;BME280;6752;52.612;13.630;2023-08-17T11:09:56;101249.47;;;26.15;94.94
13367;BME280;6752;52.612;13.630;2023-08-17T11:14:58;101248.17;;;26.17;91.39
13367;BME280;6752;52.612;13.630;2023-08-17T11:20:00;101265.30;;;26.84;83.81
13367;BME280;6752;52.612;13.630;2023-08-17T11:25:03;101252.46;;;26.94;87.12
13367;BME280;6752;52.612;13.630;2023-08-17T11:30:05;101246.74;;;28.14;83.30
13367;BME280;6752;52.612;13.630;2023-08-17T11:35:07;101244.02;;;28.12;82.06
13367;BME280;6752;52.612;13.630;2023-08-17T11:40:12;101242.98;;;28.43;78.26
13367;BME280;6752;52.612;13.630;2023-08-17T11:45:14;101243.34;;;29.06;77.74
13367;BME280;6752;52.612;13.630;2023-08-17T11:50:17;101249.38;;;28.98;75.69
13367;BME280;6752;52.612;13.630;2023-08-17T11:55:19;101248.04;;;28.65;78.62
13367;BME280;6752;52.612;13.630;2023-08-17T12:00:22;101246.70;;;28.76;77.63
13367;BME280;6752;52.612;13.630;2023-08-17T12:05:24;101250.66;;;28.44;82.49
13367;BME280;6752;52.612;13.630;2023-08-17T12:10:30;101250.14;;;27.32;83.60
13367;BME280;6752;52.612;13.630;2023-08-17T12:15:32;101236.41;;;27.75;84.72
13367;BME280;6752;52.612;13.630;2023-08-17T12:20:34;101236.83;;;27.49;84.64
13367;BME280;6752;52.612;13.630;2023-08-17T12:25:36;101240.73;;;27.43;86.66
13367;BME280;6752;52.612;13.630;2023-08-17T12:30:39;101234.89;;;27.27;87.77
13367;BME280;6752;52.612;13.630;2023-08-17T12:35:41;101223.58;;;28.11;83.40
13367;BME280;6752;52.612;13.630;2023-08-17T12:40:43;101229.21;;;27.03;82.91
13367;BME280;6752;52.612;13.630;2023-08-17T12:45:46;101218.59;;;28.65;80.79
13367;BME280;6752;52.612;13.630;2023-08-17T12:50:48;101221.93;;;26.72;85.42
13367;BME280;6752;52.612;13.630;2023-08-17T12:55:50;101217.89;;;26.79;84.25
13367;BME280;6752;52.612;13.630;2023-08-17T13:00:53;101219.28;;;27.34;85.69
13367;BME280;6752;52.612;13.630;2023-08-17T13:05:55;101220.80;;;26.96;85.15
13367;BME280;6752;52.612;13.630;2023-08-17T13:10:57;101210.69;;;27.15;85.27
13367;BME280;6752;52.612;13.630;2023-08-17T13:16:00;101205.93;;;27.20;85.42
13367;BME280;6752;52.612;13.630;2023-08-17T13:21:05;101203.64;;;26.89;83.86
13367;BME280;6752;52.612;13.630;2023-08-17T13:26:04;101198.11;;;27.77;79.91
13367;BME280;6752;52.612;13.630;2023-08-17T13:31:07;101192.02;;;27.84;81.69
13367;BME280;6752;52.612;13.630;2023-08-17T13:36:09;101192.70;;;28.18;79.73
13367;BME280;6752;52.612;13.630;2023-08-17T13:41:12;101187.40;;;28.45;77.07
13367;BME280;6752;52.612;13.630;2023-08-17T13:46:14;101192.09;;;28.86;74.94
13367;BME280;6752;52.612;13.630;2023-08-17T13:51:16;101179.31;;;28.52;78.06
13367;BME280;6752;52.612;13.630;2023-08-17T13:56:19;101184.95;;;28.24;76.14
13367;BME280;6752;52.612;13.630;2023-08-17T14:01:21;101181.12;;;28.48;74.85
13367;BME280;6752;52.612;13.630;2023-08-17T14:06:23;101174.67;;;28.35;75.28
13367;BME280;6752;52.612;13.630;2023-08-17T14:11:26;101179.97;;;28.03;76.46
13367;BME280;6752;52.612;13.630;2023-08-17T14:16:28;101166.86;;;27.97;73.58
13367;BME280;6752;52.612;13.630;2023-08-17T14:21:30;101165.86;;;28.26;76.94
13367;BME280;6752;52.612;13.630;2023-08-17T14:26:33;101145.08;;;28.57;76.26
13367;BME280;6752;52.612;13.630;2023-08-17T14:31:35;101147.63;;;28.56;75.77
13367;BME280;6752;52.612;13.630;2023-08-17T14:36:37;101137.22;;;28.22;77.70
13367;BME280;6752;52.612;13.630;2023-08-17T14:41:40;101130.00;;;28.47;77.02
13367;BME280;6752;52.612;13.630;2023-08-17T14:46:42;101136.20;;;28.09;78.71
13367;BME280;6752;52.612;13.630;2023-08-17T14:51:45;101130.86;;;27.49;83.04
13367;BME280;6752;52.612;13.630;2023-08-17T14:56:47;101126.42;;;27.57;81.00
13367;BME280;6752;52.612;13.630;2023-08-17T15:01:49;101122.97;;;27.75;80.91
13367;BME280;6752;52.612;13.630;2023-08-17T15:06:52;101117.74;;;28.12;76.98
13367;BME280;6752;52.612;13.630;2023-08-17T15:11:54;101111.37;;;28.25;78.35
13367;BME280;6752;52.612;13.630;2023-08-17T15:16:56;101123.92;;;28.12;77.21
13367;BME280;6752;52.612;13.630;2023-08-17T15:21:59;101120.76;;;28.29;78.13
13367;BME280;6752;52.612;13.630;2023-08-17T15:27:01;101118.37;;;28.25;81.01
13367;BME280;6752;52.612;13.630;2023-08-17T15:32:03;101124.35;;;27.51;82.77
13367;BME280;6752;52.612;13.630;2023-08-17T15:37:06;101135.70;;;27.94;82.42
13367;BME280;6752;52.612;13.630;2023-08-17T15:42:08;101129.77;;;27.67;81.20
13367;BME280;6752;52.612;13.630;2023-08-17T15:47:10;101129.37;;;28.00;81.66
13367;BME280;6752;52.612;13.630;2023-08-17T15:52:13;101130.55;;;27.70;83.13
13367;BME280;6752;52.612;13.630;2023-08-17T15:57:15;101126.33;;;27.31;81.92
13367;BME280;6752;52.612;13.630;2023-08-17T16:02:18;101137.41;;;27.09;85.18
13367;BME280;6752;52.612;13.630;2023-08-17T16:07:20;101137.83;;;27.25;86.29
13367;BME280;6752;52.612;13.630;2023-08-17T16:12:22;101138.47;;;26.61;89.62
13367;BME280;6752;52.612;13.630;2023-08-17T16:17:25;101133.97;;;26.45;91.45
13367;BME280;6752;52.612;13.630;2023-08-17T16:22:27;101134.98;;;26.56;92.00
13367;BME280;6752;52.612;13.630;2023-08-17T16:27:29;101136.41;;;26.06;93.63
13367;BME280;6752;52.612;13.630;2023-08-17T16:32:32;101137.13;;;25.98;95.08
13367;BME280;6752;52.612;13.630;2023-08-17T16:37:34;101137.58;;;25.71;95.46
13367;BME280;6752;52.612;13.630;2023-08-17T16:42:36;101129.11;;;25.69;96.43
13367;BME280;6752;52.612;13.630;2023-08-17T16:47:39;101130.23;;;25.61;97.15
13367;BME280;6752;52.612;13.630;2023-08-17T16:52:41;101126.39;;;25.50;97.49
13367;BME280;6752;52.612;13.630;2023-08-17T16:57:43;101130.55;;;25.60;98.69
13367;BME280;6752;52.612;13.630;2023-08-17T17:02:46;101120.41;;;25.64;99.38
13367;BME280;6752;52.612;13.630;2023-08-17T17:07:48;101123.56;;;25.39;100.00
13367;BME280;6752;52.612;13.630;2023-08-17T17:12:51;101126.82;;;25.37;100.00
13367;BME280;6752;52.612;13.630;2023-08-17T17:17:53;101123.09;;;25.34;100.00
13367;BME280;6752;52.612;13.630;2023-08-17T17:22:55;101126.72;;;25.55;100.00
13367;BME280;6752;52.612;13.630;2023-08-17T17:27:58;101128.44;;;25.31;100.00
13367;BME280;6752;52.612;13.630;2023-08-17T17:33:00;101128.98;;;25.03;100.00
13367;BME280;6752;52.612;13.630;2023-08-17T17:38:02;101119.15;;;25.15;100.00
13367;BME280;6752;52.612;13.630;2023-08-17T17:43:05;101124.27;;;25.10;100.00
13367;BME280;6752;52.612;13.630;2023-08-17T17:48:07;101143.28;;;24.47;100.00
13367;BME280;6752;52.612;13.630;2023-08-17T17:53:10;101149.62;;;24.44;100.00
13367;BME280;6752;52.612;13.630;2023-08-17T17:58:12;101142.81;;;24.22;100.00
13367;BME280;6752;52.612;13.630;2023-08-17T18:03:14;101150.98;;;24.25;100.00
13367;BME280;6752;52.612;13.630;2023-08-17T18:08:17;101157.81;;;23.95;100.00
13367;BME280;6752;52.612;13.630;2023-08-17T18:13:19;101159.09;;;23.81;100.00
13367;BME280;6752;52.612;13.630;2023-08-17T18:18:21;101152.01;;;23.70;100.00
13367;BME280;6752;52.612;13.630;2023-08-17T18:23:24;101156.77;;;23.52;100.00
13367;BME280;6752;52.612;13.630;2023-08-17T18:28:26;101158.84;;;23.54;100.00
13367;BME280;6752;52.612;13.630;2023-08-17T18:33:28;101167.08;;;23.25;100.00
13367;BME280;6752;52.612;13.630;2023-08-17T18:38:31;101180.77;;;23.17;100.00
13367;BME280;6752;52.612;13.630;2023-08-17T18:43:37;101175.20;;;23.05;100.00
13367;BME280;6752;52.612;13.630;2023-08-17T18:48:45;101181.80;;;23.00;100.00
13367;BME280;6752;52.612;13.630;2023-08-17T18:53:47;101178.41;;;23.05;100.00
13367;BME280;6752;52.612;13.630;2023-08-17T18:58:50;101177.40;;;23.08;100.00
13367;BME280;6752;52.612;13.630;2023-08-17T19:03:52;101179.84;;;22.80;100.00
13367;BME280;6752;52.612;13.630;2023-08-17T19:08:54;101182.34;;;22.79;100.00
13367;BME280;6752;52.612;13.630;2023-08-17T19:13:57;101195.05;;;22.54;100.00
13367;BME280;6752;52.612;13.630;2023-08-17T19:18:59;101194.28;;;22.41;100.00
13367;BME280;6752;52.612;13.630;2023-08-17T19:24:01;101193.34;;;22.36;100.00
13367;BME280;6752;52.612;13.630;2023-08-17T19:29:04;101191.34;;;22.25;100.00
13367;BME280;6752;52.612;13.630;2023-08-17T19:34:06;101189.31;;;22.13;100.00
13367;BME280;6752;52.612;13.630;2023-08-17T19:39:09;101180.47;;;22.01;100.00
13367;BME280;6752;52.612;13.630;2023-08-17T19:44:11;101174.81;;;21.91;100.00
13367;BME280;6752;52.612;13.630;2023-08-17T19:49:13;101161.81;;;21.84;100.00
13367;BME280;6752;52.612;13.630;2023-08-17T19:54:16;101160.58;;;21.76;100.00
13367;BME280;6752;52.612;13.630;2023-08-17T19:59:18;101145.50;;;21.68;100.00
13367;BME280;6752;52.612;13.630;2023-08-17T20:09:28;101142.22;;;21.58;100.00
13367;BME280;6752;52.612;13.630;2023-08-17T20:14:32;101138.08;;;21.48;100.00
13367;BME280;6752;52.612;13.630;2023-08-17T20:19:33;101126.22;;;21.32;100.00
13367;BME280;6752;52.612;13.630;2023-08-17T20:24:36;101126.20;;;21.37;100.00
13367;BME280;6752;52.612;13.630;2023-08-17T20:29:38;101127.61;;;21.24;100.00
13367;BME280;6752;52.612;13.630;2023-08-17T20:34:40;101133.70;;;21.26;100.00
13367;BME280;6752;52.612;13.630;2023-08-17T20:39:43;101134.94;;;21.20;100.00
13367;BME280;6752;52.612;13.630;2023-08-17T20:44:45;101128.72;;;21.16;100.00
13367;BME280;6752;52.612;13.630;2023-08-17T20:49:48;101126.11;;;21.07;100.00
13367;BME280;6752;52.612;13.630;2023-08-17T20:54:50;101147.16;;;21.03;100.00
13367;BME280;6752;52.612;13.630;2023-08-17T20:59:52;101163.66;;;20.96;100.00
13367;BME280;6752;52.612;13.630;2023-08-17T21:05:04;101156.19;;;20.92;100.00
13367;BME280;6752;52.612;13.630;2023-08-17T21:10:03;101149.68;;;20.90;100.00
13367;BME280;6752;52.612;13.630;2023-08-17T21:15:05;101168.92;;;20.80;100.00
13367;BME280;6752;52.612;13.630;2023-08-17T21:20:08;101159.24;;;20.88;100.00
13367;BME280;6752;52.612;13.630;2023-08-17T21:25:10;101154.12;;;20.86;100.00
13367;BME280;6752;52.612;13.630;2023-08-17T21:30:12;101150.94;;;20.82;100.00
13367;BME280;6752;52.612;13.630;2023-08-17T21:35:15;101155.91;;;20.91;100.00
13367;BME280;6752;52.612;13.630;2023-08-17T21:40:17;101172.11;;;20.75;100.00
13367;BME280;6752;52.612;13.630;2023-08-17T21:45:29;101182.50;;;20.72;100.00
13367;BME280;6752;52.612;13.630;2023-08-17T21:50:31;101180.15;;;20.72;100.00
13367;BME280;6752;52.612;13.630;2023-08-17T21:55:34;101185.83;;;20.74;100.00
13367;BME280;6752;52.612;13.630;2023-08-17T22:00:36;101190.53;;;20.81;100.00
13367;BME280;6752;52.612;13.630;2023-08-17T22:05:38;101184.99;;;20.76;100.00
13367;BME280;6752;52.612;13.630;2023-08-17T22:10:41;101204.25;;;20.79;100.00
13367;BME280;6752;52.612;13.630;2023-08-17T22:15:43;101212.97;;;20.72;100.00
13367;BME280;6752;52.612;13.630;2023-08-17T22:20:45;101217.83;;;20.68;100.00
13367;BME280;6752;52.612;13.630;2023-08-17T22:25:48;101201.45;;;20.56;100.00
13367;BME280;6752;52.612;13.630;2023-08-17T22:30:50;101207.41;;;20.54;100.00
13367;BME280;6752;52.612;13.630;2023-08-17T22:35:53;101202.56;;;20.55;100.00
13367;BME280;6752;52.612;13.630;2023-08-17T22:40:55;101197.70;;;20.46;100.00
13367;BME280;6752;52.612;13.630;2023-08-17T22:45:57;101183.45;;;20.48;100.00
13367;BME280;6752;52.612;13.630;2023-08-17T22:51:00;101182.48;;;20.49;100.00
13367;BME280;6752;52.612;13.630;2023-08-17T22:56:02;101173.20;;;20.49;100.00
13367;BME280;6752;52.612;13.630;2023-08-17T23:01:04;101166.28;;;20.41;100.00
13367;BME280;6752;52.612;13.630;2023-08-17T23:06:07;101161.84;;;20.45;100.00
13367;BME280;6752;52.612;13.630;2023-08-17T23:11:09;101153.55;;;20.50;100.00
13367;BME280;6752;52.612;13.630;2023-08-17T23:16:11;101148.94;;;20.40;100.00
13367;BME280;6752;52.612;13.630;2023-08-17T23:21:14;101156.73;;;20.41;100.00
13367;BME280;6752;52.612;13.630;2023-08-17T23:26:16;101157.28;;;20.43;100.00
13367;BME280;6752;52.612;13.630;2023-08-17T23:31:19;101156.73;;;20.43;100.00
13367;BME280;6752;52.612;13.630;2023-08-17T23:36:21;101159.08;;;20.43;100.00
13367;BME280;6752;52.612;13.630;2023-08-17T23:41:23;101174.03;;;20.43;100.00
13367;BME280;6752;52.612;13.630;2023-08-17T23:46:26;101180.05;;;20.34;100.00
13367;BME280;6752;52.612;13.630;2023-08-17T23:51:28;101182.55;;;20.33;100.00
13367;BME280;6752;52.612;13.630;2023-08-17T23:56:30;101174.92;;;20.24;100.00
